sensor_id;sensor_type;location;lat;lon;timestamp;pressure;altitude;pressure_sealevel;temperature;humidity
70690;BME280;58267;51.156;17.044;2023-01-19T00:00:34;98894.04;;;5.34;44.35
70690;BME280;58267;51.156;17.044;2023-01-19T00:03:02;98896.46;;;5.40;44.26
70690;BME280;58267;51.156;17.044;2023-01-19T00:05:25;98903.18;;;5.05;43.99
70690;BME280;58267;51.156;17.044;2023-01-19T00:07:50;98911.38;;;5.20;44.04
70690;BME280;58267;51.156;17.044;2023-01-19T00:10:16;98918.53;;;5.19;43.56
70690;BME280;58267;51.156;17.044;2023-01-19T00:12:41;98926.43;;;5.37;44.28
70690;BME280;58267;51.156;17.044;2023-01-19T00:15:07;98929.09;;;5.69;43.42
70690;BME280;58267;51.156;17.044;2023-01-19T00:17:31;98933.86;;;5.63;43.00
70690;BME280;58267;51.156;17.044;2023-01-19T00:19:56;98931.84;;;6.00;42.44
70690;BME280;58267;51.156;17.044;2023-01-19T00:22:21;98932.64;;;6.04;42.31
70690;BME280;58267;51.156;17.044;2023-01-19T00:24:47;98935.39;;;5.91;42.22
70690;BME280;58267;51.156;17.044;2023-01-19T00:27:13;98943.33;;;5.84;42.35
70690;BME280;58267;51.156;17.044;2023-01-19T00:29:38;98949.85;;;5.81;42.28
70690;BME280;58267;51.156;17.044;2023-01-19T00:32:05;98957.39;;;5.86;41.99
70690;BME280;58267;51.156;17.044;2023-01-19T00:34:30;98962.35;;;5.79;41.75
70690;BME280;58267;51.156;17.044;2023-01-19T00:36:55;98964.51;;;6.13;41.75
70690;BME280;58267;51.156;17.044;2023-01-19T00:39:20;98962.46;;;5.55;42.14
70690;BME280;58267;51.156;17.044;2023-01-19T00:41:46;98965.82;;;5.43;42.62
70690;BME280;58267;51.156;17.044;2023-01-19T00:44:11;98963.25;;;4.89;43.08
70690;BME280;58267;51.156;17.044;2023-01-19T00:46:37;98968.37;;;5.28;43.35
70690;BME280;58267;51.156;17.044;2023-01-19T00:49:03;98965.22;;;5.31;43.41
70690;BME280;58267;51.156;17.044;2023-01-19T00:51:27;98967.50;;;5.41;42.65
70690;BME280;58267;51.156;17.044;2023-01-19T00:53:52;98968.72;;;5.46;42.16
70690;BME280;58267;51.156;17.044;2023-01-19T00:56:18;98974.10;;;5.33;42.21
70690;BME280;58267;51.156;17.044;2023-01-19T00:58:43;98981.27;;;5.76;41.78
70690;BME280;58267;51.156;17.044;2023-01-19T01:01:09;98990.79;;;5.75;42.06
70690;BME280;58267;51.156;17.044;2023-01-19T01:03:34;98993.71;;;4.96;43.10
70690;BME280;58267;51.156;17.044;2023-01-19T01:05:59;98997.34;;;4.54;43.55
70690;BME280;58267;51.156;17.044;2023-01-19T01:08:25;98999.48;;;5.33;43.02
70690;BME280;58267;51.156;17.044;2023-01-19T01:10:51;99001.97;;;5.16;43.16
70690;BME280;58267;51.156;17.044;2023-01-19T01:13:16;99011.10;;;4.65;43.43
70690;BME280;58267;51.156;17.044;2023-01-19T01:15:42;99013.48;;;4.57;43.70
70690;BME280;58267;51.156;17.044;2023-01-19T01:18:08;99015.00;;;4.49;43.69
70690;BME280;58267;51.156;17.044;2023-01-19T01:20:33;99014.65;;;4.71;43.05
70690;BME280;58267;51.156;17.044;2023-01-19T01:22:59;99012.86;;;4.77;42.98
70690;BME280;58267;51.156;17.044;2023-01-19T01:25:25;99013.71;;;4.55;42.90
70690;BME280;58267;51.156;17.044;2023-01-19T01:27:49;99014.52;;;4.60;42.84
70690;BME280;58267;51.156;17.044;2023-01-19T01:30:15;99017.73;;;4.91;42.40
70690;BME280;58267;51.156;17.044;2023-01-19T01:32:40;99021.16;;;4.01;44.24
70690;BME280;58267;51.156;17.044;2023-01-19T01:35:08;99021.35;;;4.21;44.06
70690;BME280;58267;51.156;17.044;2023-01-19T01:37:32;99024.87;;;4.41;43.80
70690;BME280;58267;51.156;17.044;2023-01-19T01:39:57;99028.84;;;3.95;44.36
70690;BME280;58267;51.156;17.044;2023-01-19T01:42:26;99035.42;;;4.40;43.56
70690;BME280;58267;51.156;17.044;2023-01-19T01:44:50;99036.03;;;4.10;43.77
70690;BME280;58267;51.156;17.044;2023-01-19T01:47:14;99033.60;;;4.13;43.62
70690;BME280;58267;51.156;17.044;2023-01-19T01:49:39;99034.40;;;3.74;43.87
70690;BME280;58267;51.156;17.044;2023-01-19T01:52:04;99037.18;;;3.43;44.30
70690;BME280;58267;51.156;17.044;2023-01-19T01:54:30;99044.49;;;3.15;45.20
70690;BME280;58267;51.156;17.044;2023-01-19T01:56:59;99038.94;;;3.36;44.75
70690;BME280;58267;51.156;17.044;2023-01-19T01:59:23;99051.09;;;2.57;46.03
70690;BME280;58267;51.156;17.044;2023-01-19T02:01:46;99052.63;;;2.52;46.70
70690;BME280;58267;51.156;17.044;2023-01-19T02:04:12;99055.36;;;2.29;47.89
70690;BME280;58267;51.156;17.044;2023-01-19T02:06:37;99050.69;;;2.69;47.12
70690;BME280;58267;51.156;17.044;2023-01-19T02:09:06;99048.98;;;2.67;46.89
70690;BME280;58267;51.156;17.044;2023-01-19T02:11:29;99049.29;;;3.29;45.29
70690;BME280;58267;51.156;17.044;2023-01-19T02:13:53;99053.27;;;3.26;45.24
70690;BME280;58267;51.156;17.044;2023-01-19T02:16:19;99044.47;;;3.59;44.73
70690;BME280;58267;51.156;17.044;2023-01-19T02:18:45;99044.71;;;3.74;44.32
70690;BME280;58267;51.156;17.044;2023-01-19T02:21:13;99040.88;;;3.58;44.36
70690;BME280;58267;51.156;17.044;2023-01-19T02:23:39;99046.26;;;3.84;44.33
70690;BME280;58267;51.156;17.044;2023-01-19T02:26:01;99048.54;;;3.40;44.63
70690;BME280;58267;51.156;17.044;2023-01-19T02:28:27;99052.04;;;3.90;44.05
70690;BME280;58267;51.156;17.044;2023-01-19T02:30:52;99056.80;;;4.04;43.77
70690;BME280;58267;51.156;17.044;2023-01-19T02:33:17;99067.63;;;2.75;45.02
70690;BME280;58267;51.156;17.044;2023-01-19T02:35:43;99056.82;;;3.56;44.46
70690;BME280;58267;51.156;17.044;2023-01-19T02:38:09;99063.35;;;3.02;45.24
70690;BME280;58267;51.156;17.044;2023-01-19T02:40:34;99063.06;;;3.39;44.81
70690;BME280;58267;51.156;17.044;2023-01-19T02:43:00;99067.72;;;2.61;45.13
70690;BME280;58267;51.156;17.044;2023-01-19T02:45:25;99070.84;;;2.69;45.78
70690;BME280;58267;51.156;17.044;2023-01-19T02:47:51;99068.00;;;2.86;45.68
70690;BME280;58267;51.156;17.044;2023-01-19T02:52:40;99067.18;;;2.91;44.53
70690;BME280;58267;51.156;17.044;2023-01-19T02:55:11;99066.46;;;2.86;44.39
70690;BME280;58267;51.156;17.044;2023-01-19T02:57:42;99061.00;;;3.24;44.31
70690;BME280;58267;51.156;17.044;2023-01-19T03:00:06;99061.18;;;2.57;45.47
70690;BME280;58267;51.156;17.044;2023-01-19T03:02:30;99059.88;;;2.44;46.11
70690;BME280;58267;51.156;17.044;2023-01-19T03:04:58;99057.62;;;1.86;47.26
70690;BME280;58267;51.156;17.044;2023-01-19T03:07:19;99059.87;;;2.44;46.39
70690;BME280;58267;51.156;17.044;2023-01-19T03:09:42;99052.94;;;3.10;45.27
70690;BME280;58267;51.156;17.044;2023-01-19T03:12:10;99055.13;;;3.23;44.30
70690;BME280;58267;51.156;17.044;2023-01-19T03:14:30;99055.92;;;3.43;43.99
70690;BME280;58267;51.156;17.044;2023-01-19T03:16:58;99063.38;;;3.43;43.80
70690;BME280;58267;51.156;17.044;2023-01-19T03:19:23;99062.09;;;3.60;44.30
70690;BME280;58267;51.156;17.044;2023-01-19T03:21:53;99062.44;;;3.43;44.78
70690;BME280;58267;51.156;17.044;2023-01-19T03:24:12;99063.61;;;3.01;44.93
70690;BME280;58267;51.156;17.044;2023-01-19T03:26:39;99058.03;;;3.06;44.62
70690;BME280;58267;51.156;17.044;2023-01-19T03:29:02;99047.52;;;3.48;44.14
70690;BME280;58267;51.156;17.044;2023-01-19T03:31:28;99056.73;;;3.56;44.44
70690;BME280;58267;51.156;17.044;2023-01-19T03:33:55;99053.24;;;3.37;44.48
70690;BME280;58267;51.156;17.044;2023-01-19T03:36:20;99053.27;;;3.45;44.27
70690;BME280;58267;51.156;17.044;2023-01-19T03:38:45;99061.41;;;3.24;44.68
70690;BME280;58267;51.156;17.044;2023-01-19T03:41:12;99065.91;;;3.08;44.98
70690;BME280;58267;51.156;17.044;2023-01-19T03:43:35;99062.06;;;3.32;44.84
70690;BME280;58267;51.156;17.044;2023-01-19T03:46:00;99062.33;;;3.02;45.16
70690;BME280;58267;51.156;17.044;2023-01-19T03:48:25;99062.05;;;3.62;45.29
70690;BME280;58267;51.156;17.044;2023-01-19T03:50:51;99062.00;;;2.87;45.72
70690;BME280;58267;51.156;17.044;2023-01-19T03:53:16;99058.77;;;2.63;46.44
70690;BME280;58267;51.156;17.044;2023-01-19T03:55:44;99058.59;;;2.92;46.07
70690;BME280;58267;51.156;17.044;2023-01-19T03:58:08;99055.08;;;3.46;45.38
70690;BME280;58267;51.156;17.044;2023-01-19T04:00:33;99063.57;;;3.25;45.72
70690;BME280;58267;51.156;17.044;2023-01-19T04:02:58;99067.21;;;3.36;46.61
70690;BME280;58267;51.156;17.044;2023-01-19T04:05:24;99070.41;;;3.40;46.29
70690;BME280;58267;51.156;17.044;2023-01-19T04:07:49;99068.27;;;3.38;45.98
70690;BME280;58267;51.156;17.044;2023-01-19T04:10:16;99069.08;;;2.92;46.94
70690;BME280;58267;51.156;17.044;2023-01-19T04:12:40;99072.16;;;3.21;47.33
70690;BME280;58267;51.156;17.044;2023-01-19T04:15:06;99071.06;;;3.15;46.69
70690;BME280;58267;51.156;17.044;2023-01-19T04:17:31;99074.98;;;3.07;46.86
70690;BME280;58267;51.156;17.044;2023-01-19T04:19:56;99078.27;;;3.72;45.85
70690;BME280;58267;51.156;17.044;2023-01-19T04:22:22;99090.70;;;3.27;46.97
70690;BME280;58267;51.156;17.044;2023-01-19T04:24:47;99096.70;;;3.24;46.54
70690;BME280;58267;51.156;17.044;2023-01-19T04:27:12;99094.95;;;3.43;46.65
70690;BME280;58267;51.156;17.044;2023-01-19T04:29:38;99094.62;;;3.21;48.13
70690;BME280;58267;51.156;17.044;2023-01-19T04:32:03;99094.26;;;2.86;48.53
70690;BME280;58267;51.156;17.044;2023-01-19T04:34:28;99092.81;;;2.64;49.53
70690;BME280;58267;51.156;17.044;2023-01-19T04:36:54;99096.50;;;2.23;49.81
70690;BME280;58267;51.156;17.044;2023-01-19T04:39:19;99101.36;;;3.23;48.64
70690;BME280;58267;51.156;17.044;2023-01-19T04:41:44;99106.33;;;3.21;48.63
70690;BME280;58267;51.156;17.044;2023-01-19T04:44:10;99109.13;;;3.18;47.71
70690;BME280;58267;51.156;17.044;2023-01-19T04:46:35;99116.83;;;3.29;47.22
70690;BME280;58267;51.156;17.044;2023-01-19T04:49:00;99124.36;;;3.61;47.00
70690;BME280;58267;51.156;17.044;2023-01-19T04:51:26;99131.55;;;3.34;47.38
70690;BME280;58267;51.156;17.044;2023-01-19T04:53:52;99138.29;;;3.33;47.48
70690;BME280;58267;51.156;17.044;2023-01-19T04:56:18;99146.12;;;3.43;47.42
70690;BME280;58267;51.156;17.044;2023-01-19T04:58:43;99158.10;;;3.15;47.78
70690;BME280;58267;51.156;17.044;2023-01-19T05:01:09;99162.65;;;2.73;49.60
70690;BME280;58267;51.156;17.044;2023-01-19T05:03:34;99173.06;;;3.11;48.17
70690;BME280;58267;51.156;17.044;2023-01-19T05:05:59;99174.89;;;3.34;47.87
70690;BME280;58267;51.156;17.044;2023-01-19T05:08:24;99174.75;;;3.30;47.37
70690;BME280;58267;51.156;17.044;2023-01-19T05:10:49;99181.76;;;3.07;48.15
70690;BME280;58267;51.156;17.044;2023-01-19T05:13:14;99187.12;;;3.15;47.88
70690;BME280;58267;51.156;17.044;2023-01-19T05:15:39;99190.89;;;2.51;49.61
70690;BME280;58267;51.156;17.044;2023-01-19T05:18:05;99196.53;;;3.03;49.15
70690;BME280;58267;51.156;17.044;2023-01-19T05:20:31;99196.40;;;3.14;49.06
70690;BME280;58267;51.156;17.044;2023-01-19T05:22:56;99191.31;;;2.74;49.67
70690;BME280;58267;51.156;17.044;2023-01-19T05:25:22;99182.51;;;2.64;50.16
70690;BME280;58267;51.156;17.044;2023-01-19T05:27:48;99175.64;;;2.51;50.32
70690;BME280;58267;51.156;17.044;2023-01-19T05:30:14;99172.80;;;2.69;49.98
70690;BME280;58267;51.156;17.044;2023-01-19T05:32:39;99171.76;;;2.56;50.08
70690;BME280;58267;51.156;17.044;2023-01-19T05:35:06;99178.13;;;2.06;50.95
70690;BME280;58267;51.156;17.044;2023-01-19T05:37:30;99173.69;;;2.13;51.16
70690;BME280;58267;51.156;17.044;2023-01-19T05:39:56;99172.30;;;2.78;49.75
70690;BME280;58267;51.156;17.044;2023-01-19T05:42:21;99173.57;;;2.44;50.91
70690;BME280;58267;51.156;17.044;2023-01-19T05:44:46;99182.40;;;2.36;50.65
70690;BME280;58267;51.156;17.044;2023-01-19T05:47:13;99178.78;;;2.78;49.77
70690;BME280;58267;51.156;17.044;2023-01-19T05:49:38;99183.42;;;2.80;49.18
70690;BME280;58267;51.156;17.044;2023-01-19T05:52:04;99183.87;;;2.46;49.18
70690;BME280;58267;51.156;17.044;2023-01-19T05:54:29;99192.87;;;2.83;48.73
70690;BME280;58267;51.156;17.044;2023-01-19T05:56:55;99195.29;;;2.75;48.77
70690;BME280;58267;51.156;17.044;2023-01-19T05:59:20;99194.19;;;2.48;50.24
70690;BME280;58267;51.156;17.044;2023-01-19T06:01:45;99195.48;;;3.17;48.63
70690;BME280;58267;51.156;17.044;2023-01-19T06:04:11;99199.55;;;2.76;48.74
70690;BME280;58267;51.156;17.044;2023-01-19T06:06:36;99211.65;;;3.30;48.04
70690;BME280;58267;51.156;17.044;2023-01-19T06:09:02;99220.25;;;2.57;49.29
70690;BME280;58267;51.156;17.044;2023-01-19T06:11:27;99231.93;;;2.38;50.57
70690;BME280;58267;51.156;17.044;2023-01-19T06:13:53;99242.05;;;2.19;50.42
70690;BME280;58267;51.156;17.044;2023-01-19T06:16:18;99243.96;;;1.94;51.33
70690;BME280;58267;51.156;17.044;2023-01-19T06:18:44;99235.49;;;3.09;49.44
70690;BME280;58267;51.156;17.044;2023-01-19T06:21:09;99238.57;;;2.69;49.93
70690;BME280;58267;51.156;17.044;2023-01-19T06:23:35;99241.68;;;2.78;49.74
70690;BME280;58267;51.156;17.044;2023-01-19T06:26:01;99246.11;;;2.16;50.51
70690;BME280;58267;51.156;17.044;2023-01-19T06:28:27;99252.67;;;1.91;50.82
70690;BME280;58267;51.156;17.044;2023-01-19T06:30:53;99250.43;;;2.91;49.09
70690;BME280;58267;51.156;17.044;2023-01-19T06:33:18;99244.13;;;2.84;49.34
70690;BME280;58267;51.156;17.044;2023-01-19T06:35:43;99247.04;;;3.21;48.04
70690;BME280;58267;51.156;17.044;2023-01-19T06:38:14;99261.91;;;3.54;47.71
70690;BME280;58267;51.156;17.044;2023-01-19T06:40:34;99264.86;;;3.01;48.24
70690;BME280;58267;51.156;17.044;2023-01-19T06:43:00;99268.45;;;3.17;47.88
70690;BME280;58267;51.156;17.044;2023-01-19T06:45:25;99273.09;;;3.75;47.27
70690;BME280;58267;51.156;17.044;2023-01-19T06:47:51;99273.08;;;3.24;47.44
70690;BME280;58267;51.156;17.044;2023-01-19T06:50:17;99276.26;;;2.88;48.05
70690;BME280;58267;51.156;17.044;2023-01-19T06:52:42;99275.94;;;3.74;47.24
70690;BME280;58267;51.156;17.044;2023-01-19T06:55:08;99278.97;;;3.71;46.39
70690;BME280;58267;51.156;17.044;2023-01-19T06:57:33;99277.12;;;2.91;47.59
70690;BME280;58267;51.156;17.044;2023-01-19T06:59:59;99276.79;;;3.03;47.57
70690;BME280;58267;51.156;17.044;2023-01-19T07:02:24;99280.83;;;3.38;46.95
70690;BME280;58267;51.156;17.044;2023-01-19T07:04:49;99283.25;;;2.69;47.96
70690;BME280;58267;51.156;17.044;2023-01-19T07:07:15;99291.79;;;3.40;47.57
70690;BME280;58267;51.156;17.044;2023-01-19T07:09:40;99290.69;;;2.71;48.25
70690;BME280;58267;51.156;17.044;2023-01-19T07:12:06;99286.69;;;2.74;48.47
70690;BME280;58267;51.156;17.044;2023-01-19T07:14:31;99288.90;;;2.09;50.00
70690;BME280;58267;51.156;17.044;2023-01-19T07:16:56;99290.39;;;2.02;50.39
70690;BME280;58267;51.156;17.044;2023-01-19T07:19:22;99284.76;;;1.74;51.23
70690;BME280;58267;51.156;17.044;2023-01-19T07:21:47;99283.07;;;2.26;50.07
70690;BME280;58267;51.156;17.044;2023-01-19T07:24:13;99283.77;;;2.00;50.01
70690;BME280;58267;51.156;17.044;2023-01-19T07:26:38;99283.59;;;3.01;48.11
70690;BME280;58267;51.156;17.044;2023-01-19T07:29:03;99285.90;;;3.20;47.67
70690;BME280;58267;51.156;17.044;2023-01-19T07:31:29;99288.65;;;2.31;48.55
70690;BME280;58267;51.156;17.044;2023-01-19T07:33:54;99287.27;;;2.18;49.14
70690;BME280;58267;51.156;17.044;2023-01-19T07:36:20;99287.05;;;2.51;47.74
70690;BME280;58267;51.156;17.044;2023-01-19T07:38:45;99296.36;;;3.49;46.22
70690;BME280;58267;51.156;17.044;2023-01-19T07:41:11;99296.89;;;3.99;45.80
70690;BME280;58267;51.156;17.044;2023-01-19T07:43:36;99293.50;;;3.75;45.01
70690;BME280;58267;51.156;17.044;2023-01-19T07:46:03;99295.93;;;3.83;44.93
70690;BME280;58267;51.156;17.044;2023-01-19T07:48:27;99294.57;;;3.72;45.61
70690;BME280;58267;51.156;17.044;2023-01-19T07:50:52;99291.64;;;3.30;45.90
70690;BME280;58267;51.156;17.044;2023-01-19T07:53:18;99289.37;;;3.60;44.87
70690;BME280;58267;51.156;17.044;2023-01-19T07:55:43;99287.13;;;3.28;45.78
70690;BME280;58267;51.156;17.044;2023-01-19T07:58:08;99285.32;;;3.77;45.08
70690;BME280;58267;51.156;17.044;2023-01-19T08:00:34;99281.24;;;3.26;45.50
70690;BME280;58267;51.156;17.044;2023-01-19T08:03:00;99285.68;;;3.00;45.89
70690;BME280;58267;51.156;17.044;2023-01-19T08:05:25;99286.54;;;3.08;45.67
70690;BME280;58267;51.156;17.044;2023-01-19T08:07:51;99286.53;;;2.81;46.14
70690;BME280;58267;51.156;17.044;2023-01-19T08:10:17;99292.14;;;2.81;46.37
70690;BME280;58267;51.156;17.044;2023-01-19T08:12:42;99298.21;;;3.57;45.22
70690;BME280;58267;51.156;17.044;2023-01-19T08:15:08;99302.67;;;3.39;44.93
70690;BME280;58267;51.156;17.044;2023-01-19T08:17:33;99304.92;;;3.77;44.24
70690;BME280;58267;51.156;17.044;2023-01-19T08:19:59;99308.45;;;3.64;44.28
70690;BME280;58267;51.156;17.044;2023-01-19T08:22:24;99311.75;;;4.03;43.64
70690;BME280;58267;51.156;17.044;2023-01-19T08:24:49;99315.20;;;3.72;44.11
70690;BME280;58267;51.156;17.044;2023-01-19T08:27:14;99318.68;;;3.49;44.45
70690;BME280;58267;51.156;17.044;2023-01-19T08:29:39;99320.84;;;3.25;44.09
70690;BME280;58267;51.156;17.044;2023-01-19T08:32:05;99324.51;;;3.84;43.40
70690;BME280;58267;51.156;17.044;2023-01-19T08:34:30;99325.49;;;3.41;43.67
70690;BME280;58267;51.156;17.044;2023-01-19T08:36:56;99326.80;;;3.15;43.47
70690;BME280;58267;51.156;17.044;2023-01-19T08:39:22;99331.02;;;3.29;43.62
70690;BME280;58267;51.156;17.044;2023-01-19T08:41:53;99335.50;;;3.58;43.13
70690;BME280;58267;51.156;17.044;2023-01-19T08:44:13;99340.14;;;3.89;42.58
70690;BME280;58267;51.156;17.044;2023-01-19T08:46:39;99343.27;;;3.78;42.15
70690;BME280;58267;51.156;17.044;2023-01-19T08:49:04;99342.62;;;3.59;42.58
70690;BME280;58267;51.156;17.044;2023-01-19T08:51:29;99341.72;;;3.10;43.85
70690;BME280;58267;51.156;17.044;2023-01-19T08:53:54;99341.70;;;3.66;43.13
70690;BME280;58267;51.156;17.044;2023-01-19T08:56:19;99337.82;;;3.04;43.57
70690;BME280;58267;51.156;17.044;2023-01-19T08:58:45;99336.66;;;3.07;43.68
70690;BME280;58267;51.156;17.044;2023-01-19T09:01:11;99338.36;;;3.51;42.74
70690;BME280;58267;51.156;17.044;2023-01-19T09:03:36;99340.15;;;2.94;43.74
70690;BME280;58267;51.156;17.044;2023-01-19T09:06:01;99343.91;;;3.35;42.97
70690;BME280;58267;51.156;17.044;2023-01-19T09:08:26;99349.81;;;3.39;42.86
70690;BME280;58267;51.156;17.044;2023-01-19T09:10:52;99356.56;;;3.48;42.33
70690;BME280;58267;51.156;17.044;2023-01-19T09:13:18;99358.84;;;3.30;42.34
70690;BME280;58267;51.156;17.044;2023-01-19T09:15:43;99359.89;;;3.11;42.90
70690;BME280;58267;51.156;17.044;2023-01-19T09:18:11;99368.15;;;2.90;42.96
70690;BME280;58267;51.156;17.044;2023-01-19T09:20:39;99371.05;;;2.88;43.30
70690;BME280;58267;51.156;17.044;2023-01-19T09:23:04;99372.27;;;2.84;43.45
70690;BME280;58267;51.156;17.044;2023-01-19T09:25:29;99374.61;;;3.24;43.03
70690;BME280;58267;51.156;17.044;2023-01-19T09:27:54;99379.92;;;2.59;44.47
70690;BME280;58267;51.156;17.044;2023-01-19T09:30:20;99377.52;;;2.33;43.58
70690;BME280;58267;51.156;17.044;2023-01-19T09:32:46;99382.93;;;2.22;44.76
70690;BME280;58267;51.156;17.044;2023-01-19T09:35:11;99381.90;;;2.12;43.60
70690;BME280;58267;51.156;17.044;2023-01-19T09:37:36;99375.05;;;3.29;42.97
70690;BME280;58267;51.156;17.044;2023-01-19T09:40:03;99375.30;;;3.12;41.60
70690;BME280;58267;51.156;17.044;2023-01-19T09:42:32;99372.25;;;3.45;41.40
70690;BME280;58267;51.156;17.044;2023-01-19T09:44:54;99364.36;;;3.55;40.99
70690;BME280;58267;51.156;17.044;2023-01-19T09:47:23;99367.74;;;2.01;43.91
70690;BME280;58267;51.156;17.044;2023-01-19T09:49:48;99368.40;;;2.24;43.31
70690;BME280;58267;51.156;17.044;2023-01-19T09:52:11;99365.34;;;1.73;43.82
70690;BME280;58267;51.156;17.044;2023-01-19T09:54:39;99367.35;;;2.48;42.94
70690;BME280;58267;51.156;17.044;2023-01-19T09:57:01;99360.22;;;3.10;42.03
70690;BME280;58267;51.156;17.044;2023-01-19T09:59:29;99361.72;;;3.23;41.08
70690;BME280;58267;51.156;17.044;2023-01-19T10:02:03;99357.84;;;3.57;40.60
70690;BME280;58267;51.156;17.044;2023-01-19T10:04:26;99354.77;;;3.39;40.36
70690;BME280;58267;51.156;17.044;2023-01-19T10:06:42;99352.19;;;2.71;41.28
70690;BME280;58267;51.156;17.044;2023-01-19T10:09:13;99347.09;;;2.68;41.19
70690;BME280;58267;51.156;17.044;2023-01-19T10:11:38;99344.87;;;3.57;40.44
70690;BME280;58267;51.156;17.044;2023-01-19T10:14:00;99345.19;;;3.05;40.41
70690;BME280;58267;51.156;17.044;2023-01-19T10:16:31;99347.00;;;3.15;40.45
70690;BME280;58267;51.156;17.044;2023-01-19T10:18:54;99345.15;;;3.50;40.10
70690;BME280;58267;51.156;17.044;2023-01-19T10:21:20;99342.64;;;2.64;41.39
70690;BME280;58267;51.156;17.044;2023-01-19T10:23:45;99348.34;;;1.95;42.71
70690;BME280;58267;51.156;17.044;2023-01-19T10:26:10;99343.67;;;3.24;41.66
70690;BME280;58267;51.156;17.044;2023-01-19T10:28:33;99346.55;;;2.82;42.03
70690;BME280;58267;51.156;17.044;2023-01-19T10:30:59;99348.70;;;2.23;42.80
70690;BME280;58267;51.156;17.044;2023-01-19T10:33:24;99344.88;;;3.68;40.36
70690;BME280;58267;51.156;17.044;2023-01-19T10:35:49;99340.10;;;3.55;39.97
70690;BME280;58267;51.156;17.044;2023-01-19T10:38:15;99340.69;;;3.88;39.47
70690;BME280;58267;51.156;17.044;2023-01-19T10:40:45;99349.22;;;4.15;38.20
70690;BME280;58267;51.156;17.044;2023-01-19T10:45:31;99357.48;;;4.08;38.25
70690;BME280;58267;51.156;17.044;2023-01-19T10:47:58;99354.55;;;3.90;38.14
70690;BME280;58267;51.156;17.044;2023-01-19T10:50:24;99356.66;;;3.71;38.58
70690;BME280;58267;51.156;17.044;2023-01-19T10:52:49;99359.58;;;3.86;38.69
70690;BME280;58267;51.156;17.044;2023-01-19T10:57:40;99362.25;;;3.97;38.56
70690;BME280;58267;51.156;17.044;2023-01-19T11:00:05;99357.97;;;3.55;38.59
70690;BME280;58267;51.156;17.044;2023-01-19T11:02:30;99358.41;;;3.70;38.35
70690;BME280;58267;51.156;17.044;2023-01-19T11:04:57;99355.55;;;3.60;39.02
70690;BME280;58267;51.156;17.044;2023-01-19T11:07:21;99357.44;;;2.97;39.05
70690;BME280;58267;51.156;17.044;2023-01-19T11:09:47;99351.79;;;3.25;38.86
70690;BME280;58267;51.156;17.044;2023-01-19T11:12:17;99354.77;;;3.70;37.37
70690;BME280;58267;51.156;17.044;2023-01-19T11:14:38;99354.05;;;4.30;37.38
70690;BME280;58267;51.156;17.044;2023-01-19T11:17:03;99357.19;;;4.08;37.30
70690;BME280;58267;51.156;17.044;2023-01-19T11:19:30;99356.25;;;4.36;37.00
70690;BME280;58267;51.156;17.044;2023-01-19T11:24:20;99352.44;;;4.40;36.67
70690;BME280;58267;51.156;17.044;2023-01-19T11:26:47;99349.14;;;3.79;36.72
70690;BME280;58267;51.156;17.044;2023-01-19T11:29:17;99347.16;;;3.18;38.32
70690;BME280;58267;51.156;17.044;2023-01-19T11:31:36;99346.86;;;4.13;37.37
70690;BME280;58267;51.156;17.044;2023-01-19T11:34:04;99345.20;;;4.18;36.69
70690;BME280;58267;51.156;17.044;2023-01-19T11:36:29;99342.11;;;3.73;37.60
70690;BME280;58267;51.156;17.044;2023-01-19T11:38:55;99344.49;;;4.50;36.97
70690;BME280;58267;51.156;17.044;2023-01-19T11:41:21;99343.01;;;4.28;37.16
70690;BME280;58267;51.156;17.044;2023-01-19T11:43:46;99342.36;;;4.49;36.91
70690;BME280;58267;51.156;17.044;2023-01-19T11:46:11;99335.80;;;4.67;36.33
70690;BME280;58267;51.156;17.044;2023-01-19T11:48:38;99334.17;;;4.75;35.91
70690;BME280;58267;51.156;17.044;2023-01-19T11:51:04;99334.48;;;4.90;35.84
70690;BME280;58267;51.156;17.044;2023-01-19T11:53:31;99336.77;;;4.91;35.30
70690;BME280;58267;51.156;17.044;2023-01-19T11:55:55;99334.93;;;4.69;35.29
70690;BME280;58267;51.156;17.044;2023-01-19T11:58:19;99331.86;;;4.66;35.47
70690;BME280;58267;51.156;17.044;2023-01-19T12:00:47;99327.09;;;3.36;36.82
70690;BME280;58267;51.156;17.044;2023-01-19T12:03:13;99326.27;;;3.47;36.90
70690;BME280;58267;51.156;17.044;2023-01-19T12:05:36;99323.97;;;4.15;36.51
70690;BME280;58267;51.156;17.044;2023-01-19T12:08:05;99315.05;;;5.34;35.08
70690;BME280;58267;51.156;17.044;2023-01-19T12:10:28;99313.35;;;4.53;35.41
70690;BME280;58267;51.156;17.044;2023-01-19T12:12:52;99310.97;;;4.89;35.46
70690;BME280;58267;51.156;17.044;2023-01-19T12:15:22;99302.06;;;5.74;34.21
70690;BME280;58267;51.156;17.044;2023-01-19T12:17:45;99303.86;;;5.90;33.27
70690;BME280;58267;51.156;17.044;2023-01-19T12:20:20;99300.81;;;5.22;33.46
70690;BME280;58267;51.156;17.044;2023-01-19T12:22:38;99298.57;;;5.64;33.66
70690;BME280;58267;51.156;17.044;2023-01-19T12:25:01;99299.14;;;5.29;33.69
70690;BME280;58267;51.156;17.044;2023-01-19T12:27:35;99295.79;;;5.74;33.50
70690;BME280;58267;51.156;17.044;2023-01-19T12:29:49;99298.96;;;5.21;33.92
70690;BME280;58267;51.156;17.044;2023-01-19T12:32:17;99300.26;;;4.83;34.35
70690;BME280;58267;51.156;17.044;2023-01-19T12:34:42;99290.50;;;5.22;34.11
70690;BME280;58267;51.156;17.044;2023-01-19T12:39:32;99291.19;;;5.45;34.27
70690;BME280;58267;51.156;17.044;2023-01-19T12:42:03;99293.57;;;5.70;33.29
70690;BME280;58267;51.156;17.044;2023-01-19T12:44:27;99294.16;;;6.06;32.34
70690;BME280;58267;51.156;17.044;2023-01-19T12:46:51;99296.11;;;5.43;32.32
70690;BME280;58267;51.156;17.044;2023-01-19T12:49:21;99298.97;;;5.49;32.19
70690;BME280;58267;51.156;17.044;2023-01-19T12:51:39;99299.77;;;5.39;32.51
70690;BME280;58267;51.156;17.044;2023-01-19T12:54:07;99311.95;;;4.48;34.16
70690;BME280;58267;51.156;17.044;2023-01-19T12:56:33;99304.06;;;5.13;33.46
70690;BME280;58267;51.156;17.044;2023-01-19T12:58:56;99304.22;;;5.99;32.98
70690;BME280;58267;51.156;17.044;2023-01-19T13:01:22;99298.88;;;6.40;32.28